sensor_id;sensor_type;location;lat;lon;timestamp;P1;durP1;ratioP1;P2;durP2;ratioP2
12635;SDS011;6383;50.830;7.210;2023-04-15T00:00:34;5.47;;;3.40;;
12635;SDS011;6383;50.830;7.210;2023-04-15T00:03:03;8.32;;;3.10;;
12635;SDS011;6383;50.830;7.210;2023-04-15T00:05:30;6.80;;;3.00;;
12635;SDS011;6383;50.830;7.210;2023-04-15T00:07:58;5.53;;;4.05;;
12635;SDS011;6383;50.830;7.210;2023-04-15T00:10:28;5.18;;;3.05;;
12635;SDS011;6383;50.830;7.210;2023-04-15T00:12:56;6.60;;;3.90;;
12635;SDS011;6383;50.830;7.210;2023-04-15T00:15:26;9.43;;;3.28;;
12635;SDS011;6383;50.830;7.210;2023-04-15T00:17:55;9.90;;;3.58;;
12635;SDS011;6383;50.830;7.210;2023-04-15T00:20:24;7.93;;;2.63;;
12635;SDS011;6383;50.830;7.210;2023-04-15T00:22:53;5.25;;;2.80;;
12635;SDS011;6383;50.830;7.210;2023-04-15T00:25:22;8.60;;;3.03;;
12635;SDS011;6383;50.830;7.210;2023-04-15T00:27:49;5.55;;;2.75;;
12635;SDS011;6383;50.830;7.210;2023-04-15T00:30:19;6.35;;;2.53;;
12635;SDS011;6383;50.830;7.210;2023-04-15T00:32:48;7.65;;;2.83;;
12635;SDS011;6383;50.830;7.210;2023-04-15T00:35:15;7.50;;;3.00;;
12635;SDS011;6383;50.830;7.210;2023-04-15T00:37:44;5.75;;;2.90;;
12635;SDS011;6383;50.830;7.210;2023-04-15T00:40:12;8.40;;;2.90;;
12635;SDS011;6383;50.830;7.210;2023-04-15T00:42:42;6.80;;;2.80;;
12635;SDS011;6383;50.830;7.210;2023-04-15T00:45:11;6.38;;;2.75;;
12635;SDS011;6383;50.830;7.210;2023-04-15T00:47:40;6.95;;;2.47;;
12635;SDS011;6383;50.830;7.210;2023-04-15T00:50:10;4.68;;;2.72;;
12635;SDS011;6383;50.830;7.210;2023-04-15T00:52:38;10.00;;;2.92;;
12635;SDS011;6383;50.830;7.210;2023-04-15T00:55:06;6.53;;;2.65;;
12635;SDS011;6383;50.830;7.210;2023-04-15T00:57:35;7.50;;;2.58;;
12635;SDS011;6383;50.830;7.210;2023-04-15T01:00:07;10.48;;;3.10;;
12635;SDS011;6383;50.830;7.210;2023-04-15T01:02:36;3.92;;;2.35;;
12635;SDS011;6383;50.830;7.210;2023-04-15T01:05:04;7.13;;;2.90;;
12635;SDS011;6383;50.830;7.210;2023-04-15T01:07:34;4.55;;;2.25;;
12635;SDS011;6383;50.830;7.210;2023-04-15T01:10:02;7.72;;;3.03;;
12635;SDS011;6383;50.830;7.210;2023-04-15T01:12:30;9.63;;;3.13;;
12635;SDS011;6383;50.830;7.210;2023-04-15T01:15:00;5.65;;;2.58;;
12635;SDS011;6383;50.830;7.210;2023-04-15T01:17:28;7.38;;;2.30;;
12635;SDS011;6383;50.830;7.210;2023-04-15T01:19:56;3.72;;;2.05;;
12635;SDS011;6383;50.830;7.210;2023-04-15T01:22:26;4.32;;;2.90;;
12635;SDS011;6383;50.830;7.210;2023-04-15T01:24:57;5.68;;;3.33;;
12635;SDS011;6383;50.830;7.210;2023-04-15T01:27:34;3.50;;;2.70;;
12635;SDS011;6383;50.830;7.210;2023-04-15T01:30:01;5.20;;;2.35;;
12635;SDS011;6383;50.830;7.210;2023-04-15T01:32:30;3.92;;;2.28;;
12635;SDS011;6383;50.830;7.210;2023-04-15T01:34:58;4.90;;;2.92;;
12635;SDS011;6383;50.830;7.210;2023-04-15T01:37:27;6.30;;;3.10;;
12635;SDS011;6383;50.830;7.210;2023-04-15T01:39:56;10.18;;;3.45;;
12635;SDS011;6383;50.830;7.210;2023-04-15T01:42:24;8.20;;;3.00;;
12635;SDS011;6383;50.830;7.210;2023-04-15T01:44:56;3.92;;;2.28;;
12635;SDS011;6383;50.830;7.210;2023-04-15T01:47:24;4.53;;;2.75;;
12635;SDS011;6383;50.830;7.210;2023-04-15T01:49:52;4.53;;;2.45;;
12635;SDS011;6383;50.830;7.210;2023-04-15T01:52:21;5.72;;;2.80;;
12635;SDS011;6383;50.830;7.210;2023-04-15T01:54:51;4.75;;;2.65;;
12635;SDS011;6383;50.830;7.210;2023-04-15T01:57:20;6.15;;;2.60;;
12635;SDS011;6383;50.830;7.210;2023-04-15T01:59:47;5.20;;;2.78;;
12635;SDS011;6383;50.830;7.210;2023-04-15T02:02:18;5.03;;;2.15;;
12635;SDS011;6383;50.830;7.210;2023-04-15T02:04:45;3.25;;;1.95;;
12635;SDS011;6383;50.830;7.210;2023-04-15T02:07:14;6.68;;;2.90;;
12635;SDS011;6383;50.830;7.210;2023-04-15T02:09:42;4.47;;;2.70;;
12635;SDS011;6383;50.830;7.210;2023-04-15T02:12:11;3.50;;;2.42;;
12635;SDS011;6383;50.830;7.210;2023-04-15T02:14:40;5.63;;;2.78;;
12635;SDS011;6383;50.830;7.210;2023-04-15T02:17:07;8.50;;;2.78;;
12635;SDS011;6383;50.830;7.210;2023-04-15T02:19:37;7.97;;;2.80;;
12635;SDS011;6383;50.830;7.210;2023-04-15T02:22:06;4.53;;;2.67;;
12635;SDS011;6383;50.830;7.210;2023-04-15T02:24:34;7.70;;;2.63;;
12635;SDS011;6383;50.830;7.210;2023-04-15T02:27:03;6.45;;;3.20;;
12635;SDS011;6383;50.830;7.210;2023-04-15T02:29:32;8.02;;;3.00;;
12635;SDS011;6383;50.830;7.210;2023-04-15T02:32:00;5.15;;;3.00;;
12635;SDS011;6383;50.830;7.210;2023-04-15T02:34:27;6.68;;;2.80;;
12635;SDS011;6383;50.830;7.210;2023-04-15T02:36:56;6.28;;;2.70;;
12635;SDS011;6383;50.830;7.210;2023-04-15T02:39:25;6.70;;;2.92;;
12635;SDS011;6383;50.830;7.210;2023-04-15T02:41:52;4.97;;;2.72;;
12635;SDS011;6383;50.830;7.210;2023-04-15T02:44:21;8.65;;;3.00;;
12635;SDS011;6383;50.830;7.210;2023-04-15T02:46:51;4.25;;;2.95;;
12635;SDS011;6383;50.830;7.210;2023-04-15T02:49:21;8.65;;;3.58;;
12635;SDS011;6383;50.830;7.210;2023-04-15T02:51:50;11.73;;;3.35;;
12635;SDS011;6383;50.830;7.210;2023-04-15T02:54:18;6.00;;;3.13;;
12635;SDS011;6383;50.830;7.210;2023-04-15T02:56:49;6.22;;;2.90;;
12635;SDS011;6383;50.830;7.210;2023-04-15T02:59:18;3.97;;;2.78;;
12635;SDS011;6383;50.830;7.210;2023-04-15T03:01:46;9.80;;;3.25;;
12635;SDS011;6383;50.830;7.210;2023-04-15T03:04:15;3.72;;;3.33;;
12635;SDS011;6383;50.830;7.210;2023-04-15T03:06:44;9.63;;;3.30;;
12635;SDS011;6383;50.830;7.210;2023-04-15T03:09:13;5.00;;;3.03;;
12635;SDS011;6383;50.830;7.210;2023-04-15T03:11:42;9.95;;;3.42;;
12635;SDS011;6383;50.830;7.210;2023-04-15T03:14:09;6.68;;;2.88;;
12635;SDS011;6383;50.830;7.210;2023-04-15T03:16:38;4.50;;;3.00;;
12635;SDS011;6383;50.830;7.210;2023-04-15T03:19:06;5.72;;;2.80;;
12635;SDS011;6383;50.830;7.210;2023-04-15T03:21:35;5.47;;;2.72;;
12635;SDS011;6383;50.830;7.210;2023-04-15T03:24:04;5.10;;;2.75;;
12635;SDS011;6383;50.830;7.210;2023-04-15T03:26:33;5.15;;;2.80;;
12635;SDS011;6383;50.830;7.210;2023-04-15T03:29:02;4.72;;;3.00;;
12635;SDS011;6383;50.830;7.210;2023-04-15T03:31:31;6.25;;;3.22;;
12635;SDS011;6383;50.830;7.210;2023-04-15T03:34:00;5.35;;;3.38;;
12635;SDS011;6383;50.830;7.210;2023-04-15T03:36:28;4.82;;;3.00;;
12635;SDS011;6383;50.830;7.210;2023-04-15T03:38:59;8.13;;;3.60;;
12635;SDS011;6383;50.830;7.210;2023-04-15T03:41:27;5.43;;;2.70;;
12635;SDS011;6383;50.830;7.210;2023-04-15T03:43:56;10.13;;;3.67;;
12635;SDS011;6383;50.830;7.210;2023-04-15T03:46:27;10.35;;;3.35;;
12635;SDS011;6383;50.830;7.210;2023-04-15T03:48:54;7.55;;;3.50;;
12635;SDS011;6383;50.830;7.210;2023-04-15T03:51:23;5.88;;;3.20;;
12635;SDS011;6383;50.830;7.210;2023-04-15T03:53:53;9.60;;;4.38;;
12635;SDS011;6383;50.830;7.210;2023-04-15T03:56:22;6.55;;;3.13;;
12635;SDS011;6383;50.830;7.210;2023-04-15T03:58:50;6.80;;;3.53;;
12635;SDS011;6383;50.830;7.210;2023-04-15T04:01:19;3.53;;;3.17;;
12635;SDS011;6383;50.830;7.210;2023-04-15T04:03:50;7.13;;;3.60;;
12635;SDS011;6383;50.830;7.210;2023-04-15T04:06:19;8.43;;;3.88;;
12635;SDS011;6383;50.830;7.210;2023-04-15T04:08:46;7.30;;;3.33;;
12635;SDS011;6383;50.830;7.210;2023-04-15T04:11:14;6.72;;;3.40;;
12635;SDS011;6383;50.830;7.210;2023-04-15T04:13:43;5.97;;;3.33;;
12635;SDS011;6383;50.830;7.210;2023-04-15T04:16:12;8.50;;;3.47;;
12635;SDS011;6383;50.830;7.210;2023-04-15T04:18:40;4.57;;;3.00;;
12635;SDS011;6383;50.830;7.210;2023-04-15T04:21:09;5.68;;;3.47;;
12635;SDS011;6383;50.830;7.210;2023-04-15T04:23:36;7.22;;;3.10;;
12635;SDS011;6383;50.830;7.210;2023-04-15T04:26:05;4.75;;;2.72;;
12635;SDS011;6383;50.830;7.210;2023-04-15T04:28:34;6.70;;;3.20;;
12635;SDS011;6383;50.830;7.210;2023-04-15T04:31:03;4.10;;;2.97;;
12635;SDS011;6383;50.830;7.210;2023-04-15T04:33:31;8.25;;;4.50;;
12635;SDS011;6383;50.830;7.210;2023-04-15T04:35:59;6.38;;;3.15;;
12635;SDS011;6383;50.830;7.210;2023-04-15T04:38:28;6.78;;;4.13;;
12635;SDS011;6383;50.830;7.210;2023-04-15T04:40:57;7.45;;;4.78;;
12635;SDS011;6383;50.830;7.210;2023-04-15T04:43:25;8.95;;;5.85;;
12635;SDS011;6383;50.830;7.210;2023-04-15T04:45:54;8.80;;;5.85;;
12635;SDS011;6383;50.830;7.210;2023-04-15T04:48:23;11.27;;;5.88;;
12635;SDS011;6383;50.830;7.210;2023-04-15T04:50:52;13.93;;;5.70;;
12635;SDS011;6383;50.830;7.210;2023-04-15T04:53:20;7.57;;;5.03;;
12635;SDS011;6383;50.830;7.210;2023-04-15T04:55:51;7.65;;;3.90;;
12635;SDS011;6383;50.830;7.210;2023-04-15T04:58:20;9.95;;;3.97;;
12635;SDS011;6383;50.830;7.210;2023-04-15T05:00:49;6.82;;;3.78;;
12635;SDS011;6383;50.830;7.210;2023-04-15T05:03:16;11.35;;;6.05;;
12635;SDS011;6383;50.830;7.210;2023-04-15T05:05:46;6.00;;;4.40;;
12635;SDS011;6383;50.830;7.210;2023-04-15T05:08:15;9.02;;;3.72;;
12635;SDS011;6383;50.830;7.210;2023-04-15T05:10:44;6.47;;;3.55;;
12635;SDS011;6383;50.830;7.210;2023-04-15T05:13:13;6.13;;;3.67;;
12635;SDS011;6383;50.830;7.210;2023-04-15T05:15:42;14.93;;;4.70;;
12635;SDS011;6383;50.830;7.210;2023-04-15T05:18:12;3.97;;;3.40;;
12635;SDS011;6383;50.830;7.210;2023-04-15T05:20:39;6.32;;;4.07;;
12635;SDS011;6383;50.830;7.210;2023-04-15T05:23:09;7.13;;;3.92;;
12635;SDS011;6383;50.830;7.210;2023-04-15T05:25:38;7.90;;;4.32;;
12635;SDS011;6383;50.830;7.210;2023-04-15T05:28:07;15.45;;;5.60;;
12635;SDS011;6383;50.830;7.210;2023-04-15T05:30:37;7.00;;;4.20;;
12635;SDS011;6383;50.830;7.210;2023-04-15T05:33:07;8.02;;;4.68;;
12635;SDS011;6383;50.830;7.210;2023-04-15T05:35:35;8.98;;;4.88;;
12635;SDS011;6383;50.830;7.210;2023-04-15T05:38:04;12.55;;;5.50;;
12635;SDS011;6383;50.830;7.210;2023-04-15T05:40:33;8.73;;;4.60;;
12635;SDS011;6383;50.830;7.210;2023-04-15T05:43:01;8.10;;;4.00;;
12635;SDS011;6383;50.830;7.210;2023-04-15T05:45:29;7.50;;;5.35;;
12635;SDS011;6383;50.830;7.210;2023-04-15T05:47:59;7.25;;;4.55;;
12635;SDS011;6383;50.830;7.210;2023-04-15T05:50:27;8.77;;;5.38;;
12635;SDS011;6383;50.830;7.210;2023-04-15T05:52:57;13.15;;;4.22;;
12635;SDS011;6383;50.830;7.210;2023-04-15T05:55:26;7.68;;;4.45;;
12635;SDS011;6383;50.830;7.210;2023-04-15T05:57:55;5.40;;;4.53;;
12635;SDS011;6383;50.830;7.210;2023-04-15T06:00:29;7.72;;;4.25;;
12635;SDS011;6383;50.830;7.210;2023-04-15T06:02:59;7.25;;;4.45;;
12635;SDS011;6383;50.830;7.210;2023-04-15T06:05:27;9.85;;;4.38;;
12635;SDS011;6383;50.830;7.210;2023-04-15T06:07:56;6.22;;;3.92;;
12635;SDS011;6383;50.830;7.210;2023-04-15T06:10:25;10.48;;;4.75;;
12635;SDS011;6383;50.830;7.210;2023-04-15T06:12:54;8.38;;;4.07;;
12635;SDS011;6383;50.830;7.210;2023-04-15T06:15:22;9.05;;;4.90;;
12635;SDS011;6383;50.830;7.210;2023-04-15T06:17:51;7.72;;;4.00;;
12635;SDS011;6383;50.830;7.210;2023-04-15T06:20:22;7.60;;;4.40;;
12635;SDS011;6383;50.830;7.210;2023-04-15T06:22:51;5.55;;;3.50;;
12635;SDS011;6383;50.830;7.210;2023-04-15T06:25:20;14.13;;;4.43;;
12635;SDS011;6383;50.830;7.210;2023-04-15T06:27:48;9.52;;;4.68;;
12635;SDS011;6383;50.830;7.210;2023-04-15T06:30:15;5.25;;;4.60;;
12635;SDS011;6383;50.830;7.210;2023-04-15T06:32:44;5.13;;;4.57;;
12635;SDS011;6383;50.830;7.210;2023-04-15T06:35:13;6.95;;;5.50;;
12635;SDS011;6383;50.830;7.210;2023-04-15T06:37:43;6.13;;;5.18;;
12635;SDS011;6383;50.830;7.210;2023-04-15T06:40:11;10.55;;;5.10;;
12635;SDS011;6383;50.830;7.210;2023-04-15T06:42:41;9.55;;;5.00;;
12635;SDS011;6383;50.830;7.210;2023-04-15T06:45:10;8.82;;;5.20;;
12635;SDS011;6383;50.830;7.210;2023-04-15T06:47:39;8.80;;;6.00;;
12635;SDS011;6383;50.830;7.210;2023-04-15T06:50:09;11.15;;;5.93;;
12635;SDS011;6383;50.830;7.210;2023-04-15T06:52:38;7.50;;;5.25;;
12635;SDS011;6383;50.830;7.210;2023-04-15T06:55:08;10.13;;;4.30;;
12635;SDS011;6383;50.830;7.210;2023-04-15T06:57:38;9.73;;;4.80;;
12635;SDS011;6383;50.830;7.210;2023-04-15T07:00:07;6.93;;;4.88;;
12635;SDS011;6383;50.830;7.210;2023-04-15T07:02:38;12.00;;;5.30;;
12635;SDS011;6383;50.830;7.210;2023-04-15T07:05:08;8.73;;;4.70;;
12635;SDS011;6383;50.830;7.210;2023-04-15T07:07:36;9.60;;;5.22;;
12635;SDS011;6383;50.830;7.210;2023-04-15T07:10:06;12.55;;;5.43;;
12635;SDS011;6383;50.830;7.210;2023-04-15T07:12:37;9.88;;;5.10;;
12635;SDS011;6383;50.830;7.210;2023-04-15T07:15:07;8.00;;;5.32;;
12635;SDS011;6383;50.830;7.210;2023-04-15T07:17:34;11.20;;;5.22;;
12635;SDS011;6383;50.830;7.210;2023-04-15T07:20:04;7.70;;;5.20;;
12635;SDS011;6383;50.830;7.210;2023-04-15T07:22:33;8.63;;;5.10;;
12635;SDS011;6383;50.830;7.210;2023-04-15T07:25:03;7.75;;;5.28;;
12635;SDS011;6383;50.830;7.210;2023-04-15T07:27:33;7.03;;;5.13;;
12635;SDS011;6383;50.830;7.210;2023-04-15T07:30:01;6.00;;;5.30;;
12635;SDS011;6383;50.830;7.210;2023-04-15T07:32:31;6.45;;;5.32;;
12635;SDS011;6383;50.830;7.210;2023-04-15T07:34:58;7.03;;;5.10;;
12635;SDS011;6383;50.830;7.210;2023-04-15T07:44:52;8.23;;;5.18;;
12635;SDS011;6383;50.830;7.210;2023-04-15T07:47:23;7.22;;;5.20;;
12635;SDS011;6383;50.830;7.210;2023-04-15T07:49:51;6.05;;;5.45;;
12635;SDS011;6383;50.830;7.210;2023-04-15T07:52:20;8.20;;;4.30;;
12635;SDS011;6383;50.830;7.210;2023-04-15T07:54:49;6.07;;;4.30;;
12635;SDS011;6383;50.830;7.210;2023-04-15T07:57:19;5.65;;;4.68;;
12635;SDS011;6383;50.830;7.210;2023-04-15T07:59:47;8.45;;;4.57;;
12635;SDS011;6383;50.830;7.210;2023-04-15T08:02:15;6.28;;;4.25;;
12635;SDS011;6383;50.830;7.210;2023-04-15T08:04:46;8.60;;;4.32;;
12635;SDS011;6383;50.830;7.210;2023-04-15T08:07:15;7.35;;;4.30;;
12635;SDS011;6383;50.830;7.210;2023-04-15T08:09:44;6.60;;;4.07;;
12635;SDS011;6383;50.830;7.210;2023-04-15T08:12:14;14.82;;;3.60;;
12635;SDS011;6383;50.830;7.210;2023-04-15T08:14:43;4.40;;;3.28;;
12635;SDS011;6383;50.830;7.210;2023-04-15T08:17:12;8.20;;;3.58;;
12635;SDS011;6383;50.830;7.210;2023-04-15T08:19:41;7.22;;;3.05;;
12635;SDS011;6383;50.830;7.210;2023-04-15T08:22:12;7.22;;;2.90;;
12635;SDS011;6383;50.830;7.210;2023-04-15T08:24:41;4.68;;;2.63;;
12635;SDS011;6383;50.830;7.210;2023-04-15T08:27:09;3.80;;;2.67;;
12635;SDS011;6383;50.830;7.210;2023-04-15T08:29:36;4.85;;;2.60;;
12635;SDS011;6383;50.830;7.210;2023-04-15T08:32:05;4.57;;;2.78;;
12635;SDS011;6383;50.830;7.210;2023-04-15T08:34:35;2.45;;;2.22;;
12635;SDS011;6383;50.830;7.210;2023-04-15T08:37:04;2.50;;;2.25;;
12635;SDS011;6383;50.830;7.210;2023-04-15T08:39:34;4.05;;;2.00;;
12635;SDS011;6383;50.830;7.210;2023-04-15T08:42:03;2.15;;;1.75;;
12635;SDS011;6383;50.830;7.210;2023-04-15T08:44:45;6.45;;;2.10;;
12635;SDS011;6383;50.830;7.210;2023-04-15T08:47:16;4.40;;;2.50;;
12635;SDS011;6383;50.830;7.210;2023-04-15T08:49:49;3.55;;;2.08;;
12635;SDS011;6383;50.830;7.210;2023-04-15T08:52:20;2.08;;;1.98;;
12635;SDS011;6383;50.830;7.210;2023-04-15T08:54:51;3.17;;;2.13;;
12635;SDS011;6383;50.830;7.210;2023-04-15T08:57:22;2.08;;;1.77;;
12635;SDS011;6383;50.830;7.210;2023-04-15T08:59:52;3.08;;;2.00;;
12635;SDS011;6383;50.830;7.210;2023-04-15T09:02:23;6.40;;;2.38;;
12635;SDS011;6383;50.830;7.210;2023-04-15T09:04:54;4.30;;;1.38;;
12635;SDS011;6383;50.830;7.210;2023-04-15T09:07:23;3.20;;;1.80;;
12635;SDS011;6383;50.830;7.210;2023-04-15T09:09:53;2.47;;;1.48;;
12635;SDS011;6383;50.830;7.210;2023-04-15T09:12:23;2.17;;;1.80;;
12635;SDS011;6383;50.830;7.210;2023-04-15T09:14:52;2.42;;;1.48;;
12635;SDS011;6383;50.830;7.210;2023-04-15T09:17:21;1.40;;;1.30;;
12635;SDS011;6383;50.830;7.210;2023-04-15T09:20:06;1.35;;;1.25;;
12635;SDS011;6383;50.830;7.210;2023-04-15T09:22:35;1.38;;;1.27;;
12635;SDS011;6383;50.830;7.210;2023-04-15T09:25:05;6.35;;;1.30;;
12635;SDS011;6383;50.830;7.210;2023-04-15T09:27:54;2.15;;;1.02;;
12635;SDS011;6383;50.830;7.210;2023-04-15T09:30:25;1.23;;;1.10;;
12635;SDS011;6383;50.830;7.210;2023-04-15T09:32:56;1.83;;;0.93;;
12635;SDS011;6383;50.830;7.210;2023-04-15T09:35:25;2.58;;;1.15;;
12635;SDS011;6383;50.830;7.210;2023-04-15T09:38:00;2.22;;;1.08;;
12635;SDS011;6383;50.830;7.210;2023-04-15T09:40:32;3.95;;;1.73;;
12635;SDS011;6383;50.830;7.210;2023-04-15T09:43:01;2.53;;;1.38;;
12635;SDS011;6383;50.830;7.210;2023-04-15T09:45:31;1.10;;;0.90;;
12635;SDS011;6383;50.830;7.210;2023-04-15T09:48:14;1.17;;;1.10;;
12635;SDS011;6383;50.830;7.210;2023-04-15T09:50:45;1.95;;;1.42;;
12635;SDS011;6383;50.830;7.210;2023-04-15T09:53:15;1.38;;;1.27;;
12635;SDS011;6383;50.830;7.210;2023-04-15T09:55:50;0.82;;;0.80;;
12635;SDS011;6383;50.830;7.210;2023-04-15T09:58:20;1.15;;;1.02;;
12635;SDS011;6383;50.830;7.210;2023-04-15T10:00:49;2.60;;;0.85;;
12635;SDS011;6383;50.830;7.210;2023-04-15T10:03:20;0.70;;;0.68;;
12635;SDS011;6383;50.830;7.210;2023-04-15T10:05:51;1.38;;;0.80;;
12635;SDS011;6383;50.830;7.210;2023-04-15T10:08:21;1.08;;;0.90;;
12635;SDS011;6383;50.830;7.210;2023-04-15T10:10:52;2.63;;;1.05;;
12635;SDS011;6383;50.830;7.210;2023-04-15T10:13:22;1.42;;;0.80;;
12635;SDS011;6383;50.830;7.210;2023-04-15T10:15:57;1.13;;;1.05;;
12635;SDS011;6383;50.830;7.210;2023-04-15T10:18:28;3.17;;;1.15;;
12635;SDS011;6383;50.830;7.210;2023-04-15T10:21:01;0.70;;;0.70;;
12635;SDS011;6383;50.830;7.210;2023-04-15T10:23:29;3.05;;;1.25;;
12635;SDS011;6383;50.830;7.210;2023-04-15T10:25:57;4.30;;;1.00;;
12635;SDS011;6383;50.830;7.210;2023-04-15T10:28:25;0.75;;;0.70;;
12635;SDS011;6383;50.830;7.210;2023-04-15T10:30:55;1.00;;;0.98;;
12635;SDS011;6383;50.830;7.210;2023-04-15T10:33:26;1.58;;;0.90;;
12635;SDS011;6383;50.830;7.210;2023-04-15T10:35:56;1.33;;;1.20;;
12635;SDS011;6383;50.830;7.210;2023-04-15T10:38:31;1.90;;;1.17;;
12635;SDS011;6383;50.830;7.210;2023-04-15T10:41:15;1.10;;;1.10;;
12635;SDS011;6383;50.830;7.210;2023-04-15T10:43:48;1.25;;;1.15;;
12635;SDS011;6383;50.830;7.210;2023-04-15T10:46:23;2.77;;;1.20;;
12635;SDS011;6383;50.830;7.210;2023-04-15T10:49:05;2.20;;;1.60;;
12635;SDS011;6383;50.830;7.210;2023-04-15T10:51:36;1.55;;;1.45;;
12635;SDS011;6383;50.830;7.210;2023-04-15T10:54:12;1.67;;;1.58;;
12635;SDS011;6383;50.830;7.210;2023-04-15T10:56:44;1.98;;;1.88;;
12635;SDS011;6383;50.830;7.210;2023-04-15T10:59:13;1.85;;;1.73;;
12635;SDS011;6383;50.830;7.210;2023-04-15T11:01:50;1.98;;;1.88;;
12635;SDS011;6383;50.830;7.210;2023-04-15T11:07:33;2.30;;;2.10;;
12635;SDS011;6383;50.830;7.210;2023-04-15T11:13:27;2.53;;;2.00;;
12635;SDS011;6383;50.830;7.210;2023-04-15T11:15:57;1.85;;;1.75;;
12635;SDS011;6383;50.830;7.210;2023-04-15T11:18:27;2.28;;;1.77;;
12635;SDS011;6383;50.830;7.210;2023-04-15T11:20:59;5.00;;;2.50;;
12635;SDS011;6383;50.830;7.210;2023-04-15T11:23:30;2.42;;;2.22;;
12635;SDS011;6383;50.830;7.210;2023-04-15T11:26:01;2.05;;;1.90;;
12635;SDS011;6383;50.830;7.210;2023-04-15T11:28:32;1.88;;;1.77;;
12635;SDS011;6383;50.830;7.210;2023-04-15T11:31:04;1.77;;;1.63;;
12635;SDS011;6383;50.830;7.210;2023-04-15T11:33:34;1.65;;;1.55;;
12635;SDS011;6383;50.830;7.210;2023-04-15T11:36:01;1.77;;;1.67;;
12635;SDS011;6383;50.830;7.210;2023-04-15T11:38:29;1.50;;;1.50;;
12635;SDS011;6383;50.830;7.210;2023-04-15T11:40:58;2.13;;;1.55;;
12635;SDS011;6383;50.830;7.210;2023-04-15T11:43:27;1.70;;;1.60;;
12635;SDS011;6383;50.830;7.210;2023-04-15T11:46:01;1.60;;;1.50;;
12635;SDS011;6383;50.830;7.210;2023-04-15T11:48:30;2.17;;;1.70;;
12635;SDS011;6383;50.830;7.210;2023-04-15T11:50:59;1.90;;;1.80;;
12635;SDS011;6383;50.830;7.210;2023-04-15T11:53:35;1.65;;;1.55;;
12635;SDS011;6383;50.830;7.210;2023-04-15T11:56:06;1.80;;;1.70;;
12635;SDS011;6383;50.830;7.210;2023-04-15T11:58:37;1.60;;;1.58;;
12635;SDS011;6383;50.830;7.210;2023-04-15T12:01:06;1.85;;;1.75;;
12635;SDS011;6383;50.830;7.210;2023-04-15T12:03:37;1.85;;;1.75;;
12635;SDS011;6383;50.830;7.210;2023-04-15T12:06:07;2.75;;;2.00;;
12635;SDS011;6383;50.830;7.210;2023-04-15T12:08:59;4.53;;;2.00;;
12635;SDS011;6383;50.830;7.210;2023-04-15T12:11:35;2.47;;;2.05;;
12635;SDS011;6383;50.830;7.210;2023-04-15T12:14:08;3.47;;;2.10;;
12635;SDS011;6383;50.830;7.210;2023-04-15T12:16:39;3.47;;;3.25;;
12635;SDS011;6383;50.830;7.210;2023-04-15T12:19:09;3.67;;;2.10;;
12635;SDS011;6383;50.830;7.210;2023-04-15T12:21:38;2.20;;;2.10;;
12635;SDS011;6383;50.830;7.210;2023-04-15T12:24:07;2.50;;;2.30;;
12635;SDS011;6383;50.830;7.210;2023-04-15T12:26:36;3.22;;;2.92;;
12635;SDS011;6383;50.830;7.210;2023-04-15T12:29:12;2.30;;;2.10;;
12635;SDS011;6383;50.830;7.210;2023-04-15T12:31:48;3.33;;;3.10;;
12635;SDS011;6383;50.830;7.210;2023-04-15T12:34:17;2.50;;;2.33;;
12635;SDS011;6383;50.830;7.210;2023-04-15T12:36:52;2.80;;;2.70;;
12635;SDS011;6383;50.830;7.210;2023-04-15T12:39:21;3.40;;;3.20;;
12635;SDS011;6383;50.830;7.210;2023-04-15T12:41:49;3.00;;;2.80;;
12635;SDS011;6383;50.830;7.210;2023-04-15T12:44:21;3.10;;;2.90;;
12635;SDS011;6383;50.830;7.210;2023-04-15T12:46:50;4.85;;;2.75;;
12635;SDS011;6383;50.830;7.210;2023-04-15T12:49:20;3.63;;;3.35;;
12635;SDS011;6383;50.830;7.210;2023-04-15T12:51:51;3.22;;;3.03;;
12635;SDS011;6383;50.830;7.210;2023-04-15T12:54:19;3.58;;;3.28;;
12635;SDS011;6383;50.830;7.210;2023-04-15T12:56:49;3.17;;;2.97;;
12635;SDS011;6383;50.830;7.210;2023-04-15T12:59:17;3.70;;;3.40;;
12635;SDS011;6383;50.830;7.210;2023-04-15T13:01:47;3.85;;;3.55;;
12635;SDS011;6383;50.830;7.210;2023-04-15T13:04:15;3.58;;;3.38;;
12635;SDS011;6383;50.830;7.210;2023-04-15T13:06:44;3.58;;;3.28;;
12635;SDS011;6383;50.830;7.210;2023-04-15T13:09:12;4.40;;;4.00;;
12635;SDS011;6383;50.830;7.210;2023-04-15T13:11:40;3.80;;;3.50;;
12635;SDS011;6383;50.830;7.210;2023-04-15T13:14:10;3.65;;;3.35;;
12635;SDS011;6383;50.830;7.210;2023-04-15T13:16:39;3.70;;;3.40;;
12635;SDS011;6383;50.830;7.210;2023-04-15T13:19:09;3.70;;;3.40;;
12635;SDS011;6383;50.830;7.210;2023-04-15T13:21:38;6.63;;;3.65;;
12635;SDS011;6383;50.830;7.210;2023-04-15T13:24:05;4.00;;;3.70;;
12635;SDS011;6383;50.830;7.210;2023-04-15T13:26:33;4.30;;;4.00;;
12635;SDS011;6383;50.830;7.210;2023-04-15T13:29:02;5.57;;;3.80;;
12635;SDS011;6383;50.830;7.210;2023-04-15T13:31:30;3.95;;;3.65;;
12635;SDS011;6383;50.830;7.210;2023-04-15T13:33:59;4.63;;;4.32;;
12635;SDS011;6383;50.830;7.210;2023-04-15T13:36:28;4.68;;;4.28;;
12635;SDS011;6383;50.830;7.210;2023-04-15T13:38:57;5.00;;;3.80;;
12635;SDS011;6383;50.830;7.210;2023-04-15T13:41:26;8.00;;;3.85;;
12635;SDS011;6383;50.830;7.210;2023-04-15T13:43:56;4.28;;;3.78;;
12635;SDS011;6383;50.830;7.210;2023-04-15T13:46:25;3.45;;;3.22;;
12635;SDS011;6383;50.830;7.210;2023-04-15T13:48:53;4.50;;;4.10;;
12635;SDS011;6383;50.830;7.210;2023-04-15T13:51:22;3.85;;;3.55;;
12635;SDS011;6383;50.830;7.210;2023-04-15T13:53:52;4.30;;;4.00;;
12635;SDS011;6383;50.830;7.210;2023-04-15T13:56:20;4.72;;;4.30;;
12635;SDS011;6383;50.830;7.210;2023-04-15T13:58:47;4.22;;;3.92;;
12635;SDS011;6383;50.830;7.210;2023-04-15T14:01:16;5.43;;;5.00;;
12635;SDS011;6383;50.830;7.210;2023-04-15T14:03:44;6.18;;;5.15;;
12635;SDS011;6383;50.830;7.210;2023-04-15T14:06:13;5.47;;;4.97;;
12635;SDS011;6383;50.830;7.210;2023-04-15T14:08:41;5.25;;;4.85;;
12635;SDS011;6383;50.830;7.210;2023-04-15T14:11:11;5.35;;;4.95;;
12635;SDS011;6383;50.830;7.210;2023-04-15T14:13:39;5.22;;;4.88;;
12635;SDS011;6383;50.830;7.210;2023-04-15T14:16:06;6.70;;;6.20;;
12635;SDS011;6383;50.830;7.210;2023-04-15T14:18:35;6.70;;;6.00;;
12635;SDS011;6383;50.830;7.210;2023-04-15T14:21:05;7.13;;;6.57;;
12635;SDS011;6383;50.830;7.210;2023-04-15T14:23:34;7.57;;;6.05;;
12635;SDS011;6383;50.830;7.210;2023-04-15T14:26:02;7.35;;;6.65;;
12635;SDS011;6383;50.830;7.210;2023-04-15T14:28:32;9.25;;;7.93;;
12635;SDS011;6383;50.830;7.210;2023-04-15T14:31:04;7.45;;;6.85;;
12635;SDS011;6383;50.830;7.210;2023-04-15T14:33:31;7.82;;;7.13;;
12635;SDS011;6383;50.830;7.210;2023-04-15T14:36:00;8.52;;;7.82;;
12635;SDS011;6383;50.830;7.210;2023-04-15T14:38:29;7.97;;;7.28;;
12635;SDS011;6383;50.830;7.210;2023-04-15T14:40:58;11.18;;;7.60;;
12635;SDS011;6383;50.830;7.210;2023-04-15T14:43:28;8.85;;;8.13;;
12635;SDS011;6383;50.830;7.210;2023-04-15T14:45:56;8.43;;;7.65;;
12635;SDS011;6383;50.830;7.210;2023-04-15T14:48:24;8.20;;;7.40;;
12635;SDS011;6383;50.830;7.210;2023-04-15T14:50:52;7.55;;;6.90;;
12635;SDS011;6383;50.830;7.210;2023-04-15T14:53:21;7.88;;;7.18;;
12635;SDS011;6383;50.830;7.210;2023-04-15T14:55:50;8.18;;;7.38;;
12635;SDS011;6383;50.830;7.210;2023-04-15T14:58:18;8.43;;;7.50;;
12635;SDS011;6383;50.830;7.210;2023-04-15T15:00:47;7.95;;;7.30;;
12635;SDS011;6383;50.830;7.210;2023-04-15T15:03:16;8.98;;;7.13;;
12635;SDS011;6383;50.830;7.210;2023-04-15T15:05:44;7.15;;;6.55;;
12635;SDS011;6383;50.830;7.210;2023-04-15T15:08:13;6.88;;;6.40;;
12635;SDS011;6383;50.830;7.210;2023-04-15T15:10:42;7.93;;;7.25;;
12635;SDS011;6383;50.830;7.210;2023-04-15T15:13:10;10.30;;;6.88;;
12635;SDS011;6383;50.830;7.210;2023-04-15T15:15:39;7.40;;;6.70;;
12635;SDS011;6383;50.830;7.210;2023-04-15T15:18:07;7.60;;;7.00;;
12635;SDS011;6383;50.830;7.210;2023-04-15T15:20:37;7.93;;;7.05;;
12635;SDS011;6383;50.830;7.210;2023-04-15T15:23:07;7.03;;;6.47;;
12635;SDS011;6383;50.830;7.210;2023-04-15T15:25:36;6.40;;;5.90;;
12635;SDS011;6383;50.830;7.210;2023-04-15T15:28:05;6.30;;;5.70;;